Latest Weather Observations for Maatsuyker Island

IDT60801

Issued at 6:02 pm EST Thursday 29 September 2016 (issued every 30 minutes, with the page automatically refreshed every 10 minutes)

About weather observations | Map of weather stations | Latest weather observations for TAS | Other Formats
Station Details ID: 094041 Name: MAATSUYKER ISLAND LIGHTHOUSE Lat: -43.66 Lon: 146.27 Height: 146.5 m
Data from the previous 72 hours. | See also: Recent months at Maatsuyker Island
Date/Time
EST
Temp
°C
App
Temp
°C
Dew
Point
°C
Rel
Hum
%
Delta-T
°C
Wind Press
QNH
hPa
Press
MSL
hPa
Rain since
9am
mm
Dir  Spd
km/h
Gust
km/h
Spd
kts
Gust
kts
29/06:00pm 12.5 8.8 9.6 82 1.5 NW 19 35 10 19 992.9 993.0 0.0
29/05:30pm 12.6 8.7 9.5 81 1.6 NW 20 46 11 25 992.4 - 0.0
29/05:00pm 12.6 8.8 9.7 82 1.5 WNW 20 28 11 15 992.2 - 0.0
29/04:30pm 12.6 9.3 9.7 82 1.5 W 17 24 9 13 992.0 - 0.0
29/04:00pm 12.6 8.8 9.9 83 1.4 WNW 20 39 11 21 992.1 - 0.0
29/03:30pm 12.5 8.9 10.0 85 1.3 WNW 19 46 10 25 991.6 - 0.0
29/03:00pm 12.5 9.0 10.2 86 1.2 NW 19 37 10 20 992.4 992.5 0.0
29/02:30pm 12.6 8.6 10.3 86 1.2 NNW 22 41 12 22 992.7 - 0.0
29/02:00pm 12.8 9.7 10.3 85 1.3 NW 17 43 9 23 993.0 - 0.0
29/01:30pm 13.0 9.5 10.1 82 1.5 NW 19 33 10 18 993.1 - 0.0
29/01:00pm 13.1 9.6 10.2 82 1.5 NW 19 32 10 17 993.5 - 0.0
29/12:30pm 13.1 10.0 10.2 82 1.5 WNW 17 30 9 16 994.0 - 0.0
29/12:00pm 13.1 9.4 10.2 82 1.5 NNW 20 33 11 18 994.3 994.4 0.0
29/11:30am 13.5 10.8 9.0 74 2.3 WNW 13 24 7 13 994.5 - 0.0
29/11:00am 13.7 10.8 8.2 69 2.8 NW 13 24 7 13 995.4 - 0.0
29/10:30am 13.7 10.7 7.9 68 2.9 NW 13 32 7 17 995.7 - 0.0
29/10:00am 14.0 10.6 7.6 65 3.2 NNE 15 37 8 20 995.6 - 0.0
29/09:30am 14.0 10.4 6.9 62 3.5 WNW 15 32 8 17 996.1 - 0.0
29/09:00am 14.5 5.3 5.6 55 4.3 E 43 39 23 21 996.4 996.4 0.2
29/08:30am 14.1 9.3 5.6 56 4.0 NE 20 33 11 18 996.5 - 0.2
29/08:00am 13.7 10.5 5.0 55 4.1 NNW 11 22 6 12 996.3 - 0.2
29/07:30am 13.2 8.3 4.1 54 4.2 NNE 19 39 10 21 996.2 - 0.2
29/07:00am 12.6 8.2 4.6 58 3.7 NE 17 37 9 20 996.5 - 0.2
29/06:30am 12.5 8.0 4.0 56 3.9 NNE 17 39 9 21 996.5 - 0.2
29/06:00am 12.1 2.3 2.3 51 4.3 NE 43 39 23 21 996.6 996.6 0.2
29/05:30am 12.1 6.8 1.7 49 4.5 NE 19 24 10 13 996.6 - 0.2
29/05:00am 11.8 6.5 1.9 50 4.3 NE 19 32 10 17 996.9 - 0.2
29/04:30am 11.3 6.7 1.5 51 4.2 N 15 22 8 12 997.1 - 0.2
29/04:00am 11.2 5.8 1.1 50 4.2 NE 19 24 10 13 997.7 - 0.2
29/03:30am 11.0 6.1 2.0 54 3.9 NNE 17 24 9 13 997.8 - 0.2
29/03:00am 11.0 5.7 2.0 54 3.9 N 19 24 10 13 998.0 998.1 0.2
29/02:30am 11.1 5.9 2.4 55 3.8 NNE 19 24 10 13 998.4 - 0.2
29/02:00am 11.1 7.3 4.0 61 3.2 NNE 13 19 7 10 999.3 - 0.2
29/01:30am 11.6 5.9 4.9 63 3.1 E 24 35 13 19 999.8 - 0.2
29/01:00am 11.6 7.1 6.1 69 2.6 ENE 19 32 10 17 1000.3 - 0.2
29/12:30am 11.8 6.2 5.2 64 3.1 ENE 24 35 13 19 1000.6 - 0.2
29/12:00am 11.7 7.0 5.3 65 3.0 ENE 19 26 10 14 1001.1 1001.2 0.2
 
Date/Time
EST
Temp
°C
App
Temp
°C
Dew
Point
°C
Rel
Hum
%
Delta-T
°C
Wind Press
QNH
hPa
Press
MSL
hPa
Rain since
9am
mm
Dir  Spd
km/h
Gust
km/h
Spd
kts
Gust
kts
28/11:30pm 11.7 7.3 5.0 63 3.1 ENE 17 26 9 14 1001.9 - 0.2
28/11:00pm 11.5 6.8 5.3 65 2.9 ENE 19 28 10 15 1002.4 - 0.2
28/10:30pm 11.4 5.9 5.7 68 2.7 ENE 24 32 13 17 1002.7 - 0.2
28/10:00pm 11.1 6.0 6.0 71 2.4 E 22 33 12 18 1003.0 - 0.2
28/09:30pm 11.1 6.3 5.8 70 2.5 E 20 30 11 16 1003.3 - 0.2
28/09:00pm 11.1 6.5 5.8 70 2.5 E 19 32 10 17 1003.7 1003.8 0.2
28/08:30pm 11.1 6.7 5.0 66 2.8 ENE 17 30 9 16 1003.9 - 0.2
28/08:00pm 10.8 7.6 5.2 68 2.6 NW 11 19 6 10 1003.6 - 0.2
28/07:30pm 10.8 7.6 4.9 67 2.7 WNW 11 20 6 11 1003.9 - 0.2
28/07:00pm 10.5 7.4 5.6 71 2.3 WNW 11 19 6 10 1004.1 - 0.2
28/06:30pm 10.5 7.1 5.8 72 2.2 WNW 13 22 7 12 1004.1 - 0.2
28/06:00pm 10.6 7.1 5.4 70 2.4 NW 13 26 7 14 1004.0 1004.1 0.2
28/05:30pm 11.0 8.2 5.2 67 2.7 NW 9 19 5 10 1003.9 - 0.2
28/05:00pm 11.9 9.6 5.8 66 2.9 NW 7 15 4 8 1004.1 - 0.2
28/04:30pm 12.5 10.5 6.2 65 3.0 NNW 6 15 3 8 1004.3 - 0.2
28/04:00pm 12.4 10.3 5.9 64 3.1 NNW 6 9 3 5 1004.9 - 0.2
28/03:30pm 12.3 7.9 6.7 68 2.7 SE 19 28 10 15 1005.2 - 0.2
28/03:00pm 12.5 8.6 6.9 68 2.7 SSE 17 17 9 9 1005.9 1006.0 0.2
28/02:30pm 12.3 9.3 6.2 66 2.9 SSW 11 15 6 8 1006.3 - 0.2
28/02:00pm 12.3 8.8 5.5 63 3.2 SW 13 17 7 9 1006.5 - 0.2
28/01:30pm 13.2 9.9 6.4 63 3.3 W 13 17 7 9 1006.6 - 0.2
28/01:00pm 12.6 8.4 5.6 62 3.3 W 17 19 9 10 1006.9 - 0.2
28/12:30pm 13.1 7.9 5.5 60 3.6 NW 22 26 12 14 1007.3 - 0.2
28/12:00pm 12.2 6.9 4.9 61 3.4 NW 22 26 12 14 1007.8 1007.9 0.2
28/11:30am 11.6 5.9 5.1 64 3.0 NW 24 28 13 15 1008.0 - 0.2
28/11:00am 10.7 5.2 3.8 62 3.1 NNW 22 28 12 15 1008.1 - 0.2
28/10:30am 10.7 5.5 5.5 70 2.4 NNW 22 26 12 14 1008.4 - 0.2
28/10:00am 9.6 4.3 5.0 73 2.1 NW 22 30 12 16 1008.8 - 0.2
28/09:30am 9.5 0.1 4.6 71 2.2 NW 43 52 23 28 1008.3 - 0.2
28/09:00am 9.5 2.6 6.3 80 1.5 WNW 32 41 17 22 1008.6 1008.7 3.4
28/08:30am 9.5 4.0 6.1 79 1.6 NNW 24 30 13 16 1008.7 - 3.4
28/08:00am 9.0 4.0 6.4 84 1.2 NNW 22 28 12 15 1008.9 - 3.4
28/07:30am 8.6 3.3 6.9 89 0.8 NNW 24 32 13 17 1008.9 - 3.4
28/07:00am 8.4 3.1 6.7 89 0.8 NNW 24 30 13 16 1008.8 - 3.4
28/06:30am 8.5 2.5 7.0 90 0.7 NNW 28 41 15 22 1008.4 - 3.4
28/06:00am 9.0 4.5 6.2 82 1.3 NNW 19 39 10 21 1008.1 1008.2 3.4
28/05:30am 9.1 3.3 6.3 83 1.3 NNW 26 35 14 19 1007.8 - 3.4
28/05:00am 9.0 3.7 6.9 87 1.0 NNW 24 32 13 17 1007.6 - 3.4
28/04:30am 9.1 3.4 6.8 85 1.1 NNW 26 33 14 18 1007.4 - 3.4
28/04:00am 9.0 3.3 6.7 85 1.1 NNW 26 33 14 18 1007.4 - 3.4
28/03:45am 9.1 3.8 6.8 85 1.1 N 24 28 13 15 1007.3 - 3.4
28/03:30am 9.7 1.8 6.3 79 1.6 NW 37 44 20 24 1007.1 - 3.4
28/03:00am 9.5 1.1 5.6 76 1.8 NW 39 46 21 25 1006.9 1007.0 3.4
28/02:30am 9.5 1.3 6.5 81 1.4 NW 39 44 21 24 1006.8 - 3.4
28/02:00am 9.3 2.2 7.9 91 0.7 NNW 35 44 19 24 1006.7 - 3.4
28/01:30am 9.4 2.8 7.7 89 0.8 NNW 32 41 17 22 1006.8 - 3.4
28/01:00am 8.2 2.9 6.9 91 0.6 NNW 24 30 13 16 1006.8 - 3.4
28/12:30am 8.5 1.5 8.3 99 0.1 NW 35 41 19 22 1006.5 - 2.8
28/12:00am 9.3 3.5 7.9 91 0.7 NW 28 35 15 19 1006.5 1006.6 0.8
 
Date/Time
EST
Temp
°C
App
Temp
°C
Dew
Point
°C
Rel
Hum
%
Delta-T
°C
Wind Press
QNH
hPa
Press
MSL
hPa
Rain since
9am
mm
Dir  Spd
km/h
Gust
km/h
Spd
kts
Gust
kts
27/11:30pm 9.1 4.3 7.2 88 0.9 NNW 22 32 12 17 1006.6 - 0.6
27/11:00pm 9.0 3.3 6.9 87 1.0 NNW 26 35 14 19 1006.6 - 0.6
27/10:30pm 9.7 4.2 5.8 77 1.8 NNW 24 32 13 17 1006.7 - 0.2
27/10:00pm 10.4 3.1 4.4 66 2.7 NNW 32 39 17 21 1006.5 - 0.0
27/09:30pm 10.5 3.6 4.8 68 2.6 NNW 30 39 16 21 1006.4 - 0.0
27/09:00pm 10.5 3.6 6.3 75 2.0 NNW 32 46 17 25 1006.5 1006.6 0.0
27/08:30pm 10.3 0.5 7.0 80 1.6 NNW 48 59 26 32 1006.3 - 0.0
27/08:00pm 10.6 3.3 7.3 80 1.6 NW 35 46 19 25 1006.5 - 0.0
27/07:30pm 10.7 2.0 7.8 82 1.4 NW 43 54 23 29 1006.5 - 0.0
27/07:00pm 10.9 3.4 8.1 83 1.4 NNW 37 50 20 27 1006.4 - 0.0
27/06:30pm 11.1 3.3 6.7 74 2.1 NNW 37 46 20 25 1006.2 - 0.0
27/06:00pm 11.3 3.2 6.9 74 2.1 NNW 39 46 21 25 1006.2 1006.3 0.0
27/05:30pm 11.4 3.3 6.8 73 2.2 NNW 39 50 21 27 1005.8 - 0.0
27/05:00pm 11.6 4.4 7.7 77 1.9 NNW 35 44 19 24 1005.7 - 0.0
27/04:30pm 11.4 2.7 7.5 77 1.9 NNW 43 50 23 27 1005.7 - 0.0
27/04:00pm 11.2 1.6 7.9 80 1.6 NW 48 56 26 30 1005.5 - 0.0
27/03:30pm 11.7 2.1 8.1 78 1.8 NW 48 56 26 30 1005.4 - 0.0
27/03:00pm 11.9 2.3 7.8 76 2.0 NW 48 56 26 30 1005.3 1005.4 0.0
27/02:30pm 12.6 3.4 7.8 72 2.4 NW 46 50 25 27 1005.6 - 0.0
27/02:00pm 12.7 2.6 7.2 69 2.7 NW 50 56 27 30 1005.7 - 0.0
27/01:30pm 13.1 5.0 7.0 66 3.0 NW 39 43 21 23 1006.0 - 0.0
27/01:00pm 12.8 4.7 6.8 67 2.9 NW 39 46 21 25 1006.2 - 0.0
27/12:30pm 13.1 6.4 7.2 67 2.9 NW 32 37 17 20 1006.6 - 0.0
27/12:00pm 12.0 5.1 6.4 68 2.7 NW 32 35 17 19 1006.7 1006.8 0.0
27/11:30am 12.8 7.7 6.1 64 3.2 NW 22 26 12 14 1007.1 - 0.0
27/11:00am 12.1 7.3 4.7 60 3.4 NNW 19 24 10 13 1007.3 - 0.0
27/10:30am 12.4 7.8 5.6 63 3.2 NNW 19 22 10 12 1007.3 - 0.0
27/10:00am 11.8 7.2 5.4 65 3.0 N 19 24 10 13 1007.4 - 0.0
27/09:30am 10.9 6.7 5.5 69 2.5 N 17 22 9 12 1007.6 - 0.0
27/09:00am 9.9 5.9 5.1 72 2.2 N 15 20 8 11 1007.5 1007.6 0.2
27/08:30am 9.2 4.8 5.0 75 1.9 N 17 22 9 12 1007.3 - 0.2
27/08:00am 8.3 4.4 5.2 81 1.4 N 15 19 8 10 1007.3 - 0.2
27/07:30am 7.8 4.0 5.6 86 1.0 N 15 20 8 11 1007.3 - 0.2
27/07:00am 7.6 3.6 5.1 84 1.1 N 15 20 8 11 1007.2 - 0.2
27/06:30am 7.4 3.0 4.5 82 1.3 N 17 20 9 11 1006.9 - 0.2
27/06:00am 7.6 5.5 3.7 76 1.7 N 4 20 2 11 1006.7 1006.8 0.2
27/05:30am 7.5 3.1 4.6 82 1.3 N 17 20 9 11 1006.6 - 0.2
27/05:00am 7.7 3.3 5.0 83 1.2 N 17 20 9 11 1006.5 - 0.2
27/04:30am 7.7 3.0 5.3 85 1.1 N 19 22 10 12 1006.5 - 0.2
27/04:00am 7.9 4.3 6.6 91 0.6 N 15 19 8 10 1006.5 - 0.2
27/03:30am 7.9 4.2 6.4 90 0.7 N 15 17 8 9 1006.6 - 0.2
27/03:00am 7.9 4.6 6.2 89 0.8 N 13 17 7 9 1006.8 1006.9 0.2
27/02:30am 7.8 4.0 5.6 86 1.0 N 15 19 8 10 1007.0 - 0.2
27/02:00am 7.9 3.7 5.9 87 0.9 N 17 20 9 11 1007.1 - 0.2
27/01:30am 8.1 3.9 5.9 86 1.0 N 17 20 9 11 1007.4 - 0.2
27/01:00am 8.0 3.5 4.4 78 1.6 N 17 20 9 11 1007.6 - 0.2
27/12:30am 8.2 3.7 4.4 77 1.7 N 17 20 9 11 1007.8 - 0.2
27/12:00am 8.3 3.5 4.5 77 1.7 N 19 20 10 11 1007.9 1008.0 0.2
 
Date/Time
EST
Temp
°C
App
Temp
°C
Dew
Point
°C
Rel
Hum
%
Delta-T
°C
Wind Press
QNH
hPa
Press
MSL
hPa
Rain since
9am
mm
Dir  Spd
km/h
Gust
km/h
Spd
kts
Gust
kts
26/11:30pm 8.0 3.7 5.1 82 1.3 N 17 19 9 10 1008.2 - 0.2
26/11:00pm 8.2 4.7 5.3 82 1.3 N 13 17 7 9 1008.4 - 0.2
26/10:30pm 8.6 5.2 5.8 82 1.3 N 13 15 7 8 1008.6 - 0.2
26/10:00pm 8.6 4.5 6.0 84 1.2 N 17 17 9 9 1008.8 - 0.2
26/09:30pm 8.5 5.0 5.4 81 1.4 N 13 15 7 8 1008.8 - 0.2
26/09:00pm 8.6 4.8 5.8 82 1.3 N 15 20 8 11 1008.8 1008.9 0.2
26/08:30pm 9.4 5.5 5.2 75 1.9 ENE 15 20 8 11 1008.9 - 0.2
26/08:00pm 9.4 5.8 5.2 75 1.9 ENE 13 19 7 10 1009.0 - 0.2
26/07:30pm 9.3 5.7 5.1 75 1.9 ENE 13 20 7 11 1008.8 - 0.2
26/07:00pm 9.6 5.6 5.0 73 2.1 ENE 15 20 8 11 1008.6 - 0.2
26/06:30pm 9.7 6.7 5.8 77 1.8 E 11 19 6 10 1008.5 - 0.2

Other Formats:

Comma delimited format used in spreadsheet applications
http://www.bom.gov.au/fwo/IDT60801/IDT60801.94962.axf

JavaScript Object Notation format (JSON) in row-major order
http://www.bom.gov.au/fwo/IDT60801/IDT60801.94962.json